Time;durP1;ratioP1;P1;durP2;ratioP2;P2;SDS_P1;SDS_P2;PMS_P1;PMS_P2;Temp;Humidity;BMP_temperature;BMP_pressure;BME280_temperature;BME280_humidity;BME280_pressure;Samples;Min_cycle;Max_cycle;Signal;HPM_P1;HPM_P2
2023/03/28 00:00:17;;;;;;;;;;;;;;;15.27;45.88;97211.38;5060525;28;19916;-77
2023/03/28 00:02:42;;;;;;;;;;;;;;;15.26;45.97;97206.31;5077354;28;19966;-77
2023/03/28 00:05:07;;;;;;;;;;;;;;;15.26;46.01;97212.38;5094287;28;19974;-77
2023/03/28 00:07:33;;;;;;;;;;;;;;;15.26;46.00;97211.56;5095290;28;19920;-76
2023/03/28 00:09:58;;;;;;;;;;;;;;;15.26;46.02;97222.06;5077280;28;19920;-77
2023/03/28 00:12:23;;;;;;;;;;;;;;;15.24;46.14;97224.06;5095736;28;20457;-77
2023/03/28 00:14:49;;;;;;;;;;;;;;;15.24;46.02;97214.38;5077630;28;19924;-76
2023/03/28 00:17:16;;;;;;;;;;;;;;;15.24;46.08;97219.63;5060458;28;19916;-77
2023/03/28 00:19:42;;;;;;;;;;;;;;;15.24;45.90;97219.63;5077254;28;19916;-76
2023/03/28 00:22:07;;;;;;;;;;;;;;;15.24;45.89;97224.88;5077111;28;19916;-77
2023/03/28 00:24:37;;;;;;;;;;;;;;;15.22;45.97;97226.09;5060857;28;19916;-77
2023/03/28 00:27:04;;;;;;;;;;;;;;;15.21;46.03;97227.88;5072024;28;20311;-77
2023/03/28 00:29:29;;;;;;;;;;;;;;;15.19;46.05;97225.44;5057173;28;19921;-76
2023/03/28 00:31:55;;;;;;;;;;;;;;;15.19;46.12;97225.44;5056770;28;19935;-76
2023/03/28 00:34:21;;;;;;;;;;;;;;;15.18;46.10;97225.63;5039785;28;19921;-77
2023/03/28 00:36:46;;;;;;;;;;;;;;;15.17;46.03;97227.44;5056811;28;19952;-77
2023/03/28 00:39:12;;;;;;;;;;;;;;;15.17;46.01;97229.25;5091205;28;19920;-77
2023/03/28 00:41:39;;;;;;;;;;;;;;;15.16;46.04;97230.25;5060049;28;20022;-77
2023/03/28 00:44:23;;;;;;;;;;;;;;;15.16;45.97;97230.25;5060204;28;19946;-76
2023/03/28 00:46:48;;;;;;;;;;;;;;;15.15;45.77;97234.69;5080920;28;19923;-77
2023/03/28 00:49:14;;;;;;;;;;;;;;;15.14;45.89;97229.63;5056633;28;19916;-78
2023/03/28 00:51:40;;;;;;;;;;;;;;;15.15;45.94;97228.63;5074563;28;19916;-79
2023/03/28 00:54:07;;;;;;;;;;;;;;;15.14;45.73;97234.88;5039473;28;20006;-77
2023/03/28 00:56:33;;;;;;;;;;;;;;;15.13;45.63;97230.59;5056391;28;19963;-78
2023/03/28 00:58:58;;;;;;;;;;;;;;;15.12;45.50;97232.44;5039695;28;19962;-79
2023/03/28 01:01:24;;;;;;;;;;;;;;;15.13;45.57;97231.44;5056349;28;19946;-78
2023/03/28 01:03:51;;;;;;;;;;;;;;;15.15;45.40;97233.88;5056165;28;19920;-78
2023/03/28 01:06:20;;;;;;;;;;;;;;;15.14;45.35;97233.06;5056416;28;20003;-78
2023/03/28 01:08:46;;;;;;;;;;;;;;;15.13;45.48;97236.69;5056961;28;19956;-78
2023/03/28 01:11:11;;;;;;;;;;;;;;;15.13;45.34;97236.69;5056290;28;19923;-78
2023/03/28 01:13:37;;;;;;;;;;;;;;;15.14;45.35;97234.88;5055662;28;19916;-78
2023/03/28 01:16:03;;;;;;;;;;;;;;;15.15;45.30;97236.53;5055931;28;20015;-77
2023/03/28 01:18:29;;;;;;;;;;;;;;;15.14;45.31;97232.25;5056520;28;20021;-77
2023/03/28 01:21:00;;;;;;;;;;;;;;;15.14;45.35;97235.69;5056113;28;20018;-79
2023/03/28 01:23:44;;;;;;;;;;;;;;;15.15;45.35;97234.69;5055906;28;20390;-78
2023/03/28 01:26:10;;;;;;;;;;;;;;;15.15;45.39;97232.06;5073696;28;20391;-79
2023/03/28 01:28:38;;;;;;;;;;;;;;;15.15;45.41;97226.00;5073671;28;19921;-78
2023/03/28 01:31:09;;;;;;;;;;;;;;;15.15;45.37;97224.19;5073662;28;20395;-78
2023/03/28 01:34:07;;;;;;;;;;;;;;;15.16;45.35;97232.88;5055518;28;20062;-78
2023/03/28 01:36:47;;;;;;;;;;;;;;;15.16;45.13;97223.19;4992085;28;20012;-78
2023/03/28 01:39:15;;;;;;;;;;;;;;;15.16;45.18;97222.38;4991981;28;19925;-78
2023/03/28 01:41:49;;;;;;;;;;;;;;;15.17;45.25;97224.81;4992152;28;19928;-78
2023/03/28 01:44:15;;;;;;;;;;;;;;;15.17;45.28;97226.63;4975855;28;20353;-78
2023/03/28 01:46:44;;;;;;;;;;;;;;;15.17;45.22;97226.63;4991942;28;19922;-78
2023/03/28 01:49:10;;;;;;;;;;;;;;;15.16;45.16;97231.09;4975812;28;19917;-78
2023/03/28 01:51:40;;;;;;;;;;;;;;;15.16;44.95;97225.81;4975444;28;20385;-77
2023/03/28 01:54:17;;;;;;;;;;;;;;;15.17;45.18;97239.78;4975628;28;19917;-77
2023/03/28 01:56:47;;;;;;;;;;;;;;;15.17;45.07;97237.94;4991903;28;19918;-78
2023/03/28 01:59:13;;;;;;;;;;;;;;;15.16;45.07;97232.88;4991907;28;19918;-78
2023/03/28 02:01:44;;;;;;;;;;;;;;;15.16;45.10;97236.34;5000925;28;19924;-78
2023/03/28 02:04:09;;;;;;;;;;;;;;;15.16;45.10;97236.34;4995260;28;20015;-78
2023/03/28 02:06:37;;;;;;;;;;;;;;;15.17;45.07;97231.88;4994735;28;20420;-78
2023/03/28 02:09:03;;;;;;;;;;;;;;;15.17;45.03;97230.06;4978749;28;19917;-78
2023/03/28 02:11:28;;;;;;;;;;;;;;;15.16;44.99;97228.44;5009376;28;19924;-78
2023/03/28 02:13:55;;;;;;;;;;;;;;;15.17;44.92;97237.16;5055220;28;19924;-77
2023/03/28 02:16:21;;;;;;;;;;;;;;;15.16;44.83;97244.22;5038457;28;20353;-73
2023/03/28 02:18:48;;;;;;;;;;;;;;;15.15;44.86;97241.78;5038474;28;19923;-77
2023/03/28 02:21:18;;;;;;;;;;;;;;;15.15;44.84;97242.59;5054963;28;19916;-77
2023/03/28 02:23:50;;;;;;;;;;;;;;;15.14;44.73;97246.19;5055211;28;19990;-78
2023/03/28 02:26:16;;;;;;;;;;;;;;;15.14;44.80;97248.03;5055018;28;19941;-77
2023/03/28 02:28:42;;;;;;;;;;;;;;;15.14;44.86;97255.91;5072770;28;20433;-78
2023/03/28 02:31:07;;;;;;;;;;;;;;;15.13;44.74;97262.97;5072646;28;19985;-77
2023/03/28 02:33:33;;;;;;;;;;;;;;;15.13;44.77;97270.88;5054999;28;20007;-77
2023/03/28 02:36:19;;;;;;;;;;;;;;;15.12;44.63;97263.16;5072915;28;19959;-77
2023/03/28 02:38:47;;;;;;;;;;;;;;;15.11;44.74;97272.84;4955652;28;19918;-77
2023/03/28 02:41:25;;;;;;;;;;;;;;;15.11;44.67;97272.84;4971443;28;20018;-78
2023/03/28 02:44:13;;;;;;;;;;;;;;;15.10;44.81;97278.28;4955614;28;20000;-77
2023/03/28 02:46:56;;;;;;;;;;;;;;;15.09;44.90;97280.09;4914036;29;19971;-77
2023/03/28 02:49:25;;;;;;;;;;;;;;;15.10;44.82;97280.91;4914454;29;19946;-77
2023/03/28 02:51:57;;;;;;;;;;;;;;;15.08;44.78;97283.72;4914472;29;20382;-77
2023/03/28 02:54:22;;;;;;;;;;;;;;;15.07;44.75;97289.16;4898531;29;19950;-77
2023/03/28 02:57:06;;;;;;;;;;;;;;;15.06;44.79;97293.59;4914332;29;19977;-77
2023/03/28 02:59:45;;;;;;;;;;;;;;;15.05;44.72;97291.16;4914301;29;19919;-75
2023/03/28 03:02:15;;;;;;;;;;;;;;;15.03;44.68;97293.97;4914173;29;20029;-75
2023/03/28 03:04:40;;;;;;;;;;;;;;;15.01;44.67;97296.78;4898723;29;19923;-76
2023/03/28 03:07:07;;;;;;;;;;;;;;;15.00;44.57;97302.19;4922457;29;20390;-76
2023/03/28 03:09:33;;;;;;;;;;;;;;;14.99;44.67;97311.91;4917098;29;19919;-76
2023/03/28 03:11:58;;;;;;;;;;;;;;;14.98;44.79;97310.28;4916597;29;20430;-76
2023/03/28 03:14:24;;;;;;;;;;;;;;;14.97;44.56;97313.88;4933194;29;19930;-76
2023/03/28 03:16:51;;;;;;;;;;;;;;;14.96;44.62;97312.25;4969211;28;19969;-76
2023/03/28 03:19:17;;;;;;;;;;;;;;;14.95;44.61;97315.06;4974509;28;19917;-76
2023/03/28 03:21:42;;;;;;;;;;;;;;;14.93;44.67;97315.25;4990895;28;20014;-76
2023/03/28 03:24:08;;;;;;;;;;;;;;;14.92;44.54;97318.06;5030821;28;20014;-76
2023/03/28 03:26:34;;;;;;;;;;;;;;;14.91;44.43;97319.03;5053914;28;19970;-75
2023/03/28 03:29:00;;;;;;;;;;;;;;;14.90;44.36;97317.44;5054429;28;19921;-71
2023/03/28 03:31:25;;;;;;;;;;;;;;;14.87;44.21;97312.53;5072086;28;20346;-73
2023/03/28 03:33:51;;;;;;;;;;;;;;;14.83;44.24;97306.81;5054117;28;19917;-72
2023/03/28 03:36:17;;;;;;;;;;;;;;;14.81;44.23;97309.59;5053987;28;19966;-80
2023/03/28 03:38:43;;;;;;;;;;;;;;;14.78;44.10;97323.09;5071819;28;20011;-77
2023/03/28 03:41:08;;;;;;;;;;;;;;;14.75;44.26;97331.31;5057104;28;19947;-79
2023/03/28 03:43:33;;;;;;;;;;;;;;;14.81;49.59;97329.81;5057933;28;19917;-77
2023/03/28 03:46:00;;;;;;;;;;;;;;;14.83;47.96;97340.94;5056900;28;19917;-77
2023/03/28 03:48:25;;;;;;;;;;;;;;;14.81;47.93;97335.06;5058124;28;20003;-76
2023/03/28 03:50:50;;;;;;;;;;;;;;;14.78;47.71;97336.22;5075809;28;20448;-77
2023/03/28 03:53:16;;;;;;;;;;;;;;;14.75;47.33;97336.59;5057259;28;19916;-78
2023/03/28 03:55:41;;;;;;;;;;;;;;;14.80;52.32;97346.56;5056891;28;19940;-75
2023/03/28 03:58:06;;;;;;;;;;;;;;;14.79;49.87;97347.56;5057354;28;19916;-72
2023/03/28 04:00:31;;;;;;;;;;;;;;;14.77;49.93;97354.78;5075624;28;19939;-76
2023/03/28 04:02:57;;;;;;;;;;;;;;;14.74;49.70;97355.97;5040753;28;20315;-77
2023/03/28 04:05:22;;;;;;;;;;;;;;;14.71;49.35;97366.84;5057482;28;20022;-77
2023/03/28 04:07:47;;;;;;;;;;;;;;;14.69;48.83;97375.88;5071747;28;19920;-77
2023/03/28 04:10:13;;;;;;;;;;;;;;;14.65;48.61;97375.41;5060637;28;19916;-74
2023/03/28 04:12:38;;;;;;;;;;;;;;;14.62;48.23;97381.03;5078234;28;19916;-80
2023/03/28 04:15:04;;;;;;;;;;;;;;;14.63;47.70;97382.66;5060452;28;20011;-77
2023/03/28 04:17:33;;;;;;;;;;;;;;;14.63;47.37;97387.91;5095398;28;19923;-78
2023/03/28 04:19:58;;;;;;;;;;;;;;;14.59;47.26;97390.03;5077661;28;19916;-77
2023/03/28 04:22:28;;;;;;;;;;;;;;;14.55;46.85;97390.56;5060327;28;19916;-77
2023/03/28 04:24:55;;;;;;;;;;;;;;;14.52;46.77;97398.81;5078074;28;19916;-77
2023/03/28 04:27:25;;;;;;;;;;;;;;;14.53;46.64;97405.69;5077531;28;19920;-77
2023/03/28 04:29:52;;;;;;;;;;;;;;;14.51;46.38;97412.91;5095035;28;20371;-78
2023/03/28 04:32:20;;;;;;;;;;;;;;;14.48;46.17;97419.31;5094946;28;20379;-77
2023/03/28 04:34:45;;;;;;;;;;;;;;;14.47;46.19;97420.34;5080936;28;20422;-77
2023/03/28 04:37:12;;;;;;;;;;;;;;;14.44;45.88;97415.44;5093960;28;19920;-77
2023/03/28 04:39:40;;;;;;;;;;;;;;;14.44;45.81;97423.31;5077059;28;19916;-77
2023/03/28 04:42:07;;;;;;;;;;;;;;;14.42;45.47;97449.72;5076544;28;19916;-77
2023/03/28 04:44:32;;;;;;;;;;;;;;;14.40;45.22;97432.50;5093744;28;20014;-77
2023/03/28 04:46:57;;;;;;;;;;;;;;;14.40;44.97;97438.56;5076670;28;20011;-77
2023/03/28 04:49:23;;;;;;;;;;;;;;;14.39;44.74;97441.38;5093774;28;20298;-77
2023/03/28 04:51:49;;;;;;;;;;;;;;;14.39;44.51;97441.38;5093348;28;19922;-77
2023/03/28 04:54:15;;;;;;;;;;;;;;;14.38;44.39;97451.06;5076793;28;19916;-77
2023/03/28 04:56:40;;;;;;;;;;;;;;;14.38;44.17;97456.31;5093599;28;19949;-78
2023/03/28 04:59:05;;;;;;;;;;;;;;;14.38;43.77;97458.94;5094921;28;19931;-78
2023/03/28 05:01:31;;;;;;;;;;;;;;;14.39;43.61;97470.25;5076716;28;19924;-80
2023/03/28 05:03:57;;;;;;;;;;;;;;;14.40;43.37;97464.00;5093571;28;19927;-77
2023/03/28 05:06:24;;;;;;;;;;;;;;;14.41;43.25;97478.78;5076384;28;19920;-78
2023/03/28 05:08:50;;;;;;;;;;;;;;;14.40;43.21;97485.81;5076558;28;19916;-79
2023/03/28 05:11:15;;;;;;;;;;;;;;;14.43;43.10;97488.09;5076442;28;19920;-79
2023/03/28 05:13:40;;;;;;;;;;;;;;;14.46;42.90;97484.31;5076293;28;19944;-78
2023/03/28 05:16:06;;;;;;;;;;;;;;;14.48;42.75;97491.06;5076093;28;20011;-79
2023/03/28 05:18:31;;;;;;;;;;;;;;;14.53;42.80;97484.44;5076234;28;19916;-79
2023/03/28 05:20:56;;;;;;;;;;;;;;;14.58;42.14;97493.47;5076250;28;19912;-81
2023/03/28 05:23:22;;;;;;;;;;;;;;;14.66;42.24;97503.13;5076045;28;19923;-78
2023/03/28 05:25:50;;;;;;;;;;;;;;;14.79;42.15;97506.00;5076184;28;20449;-78
2023/03/28 05:28:16;;;;;;;;;;;;;;;15.02;41.79;97515.69;5075919;28;19920;-78
2023/03/28 05:30:41;;;;;;;;;;;;;;;15.14;41.45;97521.38;5076040;28;19927;-79
2023/03/28 05:33:06;;;;;;;;;;;;;;;15.29;41.06;97514.34;5075546;28;19924;-78
2023/03/28 05:35:32;;;;;;;;;;;;;;;15.67;40.44;97531.91;5075921;28;19916;-82
2023/03/28 05:37:57;;;;;;;;;;;;;;;16.66;38.71;97517.69;5075897;28;20375;-81
2023/03/28 05:40:22;;;;;;;;;;;;;;;17.50;37.70;97527.63;5092734;28;19974;-80
2023/03/28 05:42:48;;;;;;;;;;;;;;;18.77;36.34;97541.56;5075616;28;19917;-78
2023/03/28 05:45:13;;;;;;;;;;;;;;;19.80;34.28;97533.38;5093972;28;19916;-78
2023/03/28 05:47:39;;;;;;;;;;;;;;;20.83;32.74;97537.16;5075606;28;19920;-79
2023/03/28 05:50:05;;;;;;;;;;;;;;;20.74;32.73;97541.88;5093720;28;19923;-78
2023/03/28 05:52:30;;;;;;;;;;;;;;;20.57;33.06;97549.50;5075675;28;19927;-78
2023/03/28 05:54:56;;;;;;;;;;;;;;;20.61;32.88;97552.53;5075382;28;19916;-79
2023/03/28 05:57:23;;;;;;;;;;;;;;;20.50;32.86;97554.00;5075659;28;19962;-78
2023/03/28 05:59:50;;;;;;;;;;;;;;;20.38;33.26;97571.56;5092585;28;19916;-82
2023/03/28 06:02:16;;;;;;;;;;;;;;;20.20;33.44;97580.19;5074514;28;19916;-78
2023/03/28 06:04:41;;;;;;;;;;;;;;;20.02;33.67;97583.44;5075343;28;19924;-80
2023/03/28 06:07:07;;;;;;;;;;;;;;;19.92;33.94;97591.03;5093280;28;19945;-79
2023/03/28 06:09:33;;;;;;;;;;;;;;;19.83;34.16;97591.22;5075426;28;20010;-79
2023/03/28 06:12:01;;;;;;;;;;;;;;;19.80;42.62;97594.28;5066821;28;19916;-79
2023/03/28 06:14:26;;;;;;;;;;;;;;;19.88;43.61;97607.31;5058798;28;19922;-78
2023/03/28 06:16:52;;;;;;;;;;;;;;;20.23;42.75;97608.91;5058207;28;19924;-77
2023/03/28 06:19:17;;;;;;;;;;;;;;;20.64;42.02;97607.00;5058328;28;19973;-77
2023/03/28 06:21:42;;;;;;;;;;;;;;;20.90;41.20;97604.22;5058245;28;19950;-77
2023/03/28 06:24:08;;;;;;;;;;;;;;;21.49;40.13;97601.47;5058208;28;19916;-78
2023/03/28 06:26:34;;;;;;;;;;;;;;;21.69;39.62;97623.41;5093058;28;19915;-77
2023/03/28 06:28:59;;;;;;;;;;;;;;;21.61;39.74;97626.31;5075022;28;20349;-77
2023/03/28 06:31:24;;;;;;;;;;;;;;;21.92;38.90;97634.47;5075162;28;19963;-79
2023/03/28 06:33:50;;;;;;;;;;;;;;;22.16;38.06;97641.63;5075399;28;19977;-78
2023/03/28 06:36:15;;;;;;;;;;;;;;;22.26;38.09;97635.81;5076264;28;19923;-76
2023/03/28 06:38:40;;;;;;;;;;;;;;;22.26;38.13;97642.97;5093142;28;19920;-79
2023/03/28 06:41:06;;;;;;;;;;;;;;;22.21;38.28;97657.72;5058396;28;19927;-80
2023/03/28 06:43:31;;;;;;;;;;;;;;;22.30;37.75;97665.47;5058299;28;19923;-78
2023/03/28 06:45:56;;;;;;;;;;;;;;;22.28;37.41;97656.84;5061146;28;20402;-75
2023/03/28 06:48:22;;;;;;;;;;;;;;;22.30;37.26;97663.63;5101056;28;20014;-77
2023/03/28 06:50:49;;;;;;;;;;;;;;;22.35;36.90;97658.44;5082534;28;19922;-77
2023/03/28 06:53:15;;;;;;;;;;;;;;;22.36;37.05;97656.59;5077562;28;19928;-76
2023/03/28 06:55:40;;;;;;;;;;;;;;;22.22;37.20;97662.00;5075004;28;19920;-75
2023/03/28 06:58:06;;;;;;;;;;;;;;;22.02;37.30;97656.88;5100025;28;20377;-77
2023/03/28 07:00:32;;;;;;;;;;;;;;;21.92;37.40;97661.03;5083794;28;20515;-79
2023/03/28 07:02:57;;;;;;;;;;;;;;;21.87;37.18;97675.00;5064145;28;19916;-76
2023/03/28 07:05:22;;;;;;;;;;;;;;;21.72;37.29;97669.97;5100357;28;19923;-78
2023/03/28 07:07:48;;;;;;;;;;;;;;;21.92;36.92;97685.78;5084636;28;19920;-76
2023/03/28 07:10:13;;;;;;;;;;;;;;;22.40;36.18;97687.84;5101968;28;19976;-74
2023/03/28 07:12:39;;;;;;;;;;;;;;;23.17;35.32;97696.50;5076184;28;20404;-74
2023/03/28 07:15:04;;;;;;;;;;;;;;;23.88;34.01;97684.28;5087487;28;19920;-74
2023/03/28 07:17:30;;;;;;;;;;;;;;;24.56;32.94;97687.47;5116175;28;19916;-73
2023/03/28 07:19:56;;;;;;;;;;;;;;;25.18;33.01;97681.56;5099598;28;20435;-82
2023/03/28 07:22:22;;;;;;;;;;;;;;;25.50;32.17;97694.47;5099456;28;19938;-77
2023/03/28 07:24:47;;;;;;;;;;;;;;;25.83;31.13;97684.91;5116761;28;20326;-75
2023/03/28 07:27:12;;;;;;;;;;;;;;;26.40;30.72;97683.97;5099590;28;19963;-84
2023/03/28 07:29:38;;;;;;;;;;;;;;;26.71;30.15;97685.22;5082970;28;19922;-76
2023/03/28 07:32:03;;;;;;;;;;;;;;;28.03;27.38;97682.66;5117388;28;19973;-88
2023/03/28 07:34:28;;;;;;;;;;;;;;;27.11;28.33;97691.34;5086330;28;19955;-88
2023/03/28 07:36:54;;;;;;;;;;;;;;;26.91;28.97;97689.22;5086100;28;20437;-85
2023/03/28 07:39:21;;;;;;;;;;;;;;;26.94;29.13;97696.75;5100154;28;19920;-86
2023/03/28 07:41:46;;;;;;;;;;;;;;;26.44;30.43;97693.13;5099083;28;19919;-82
2023/03/28 07:44:11;;;;;;;;;;;;;;;26.62;29.63;97705.41;5117930;28;19923;-87
2023/03/28 07:46:37;;;;;;;;;;;;;;;28.37;27.88;97710.03;5103332;28;19916;-82
2023/03/28 07:49:03;;;;;;;;;;;;;;;27.80;28.59;97727.50;5083375;28;19924;-82
2023/03/28 07:51:28;;;;;;;;;;;;;;;28.10;28.61;97716.28;5081596;28;20390;-79
2023/03/28 07:53:54;;;;;;;;;;;;;;;27.81;28.49;97713.00;5098333;28;19923;-79
2023/03/28 07:56:19;;;;;;;;;;;;;;;28.26;26.78;97732.47;5098742;28;20363;-79
2023/03/28 07:58:47;;;;;;;;;;;;;;;27.61;27.30;97743.09;5116906;28;19916;-82
2023/03/28 08:01:16;;;;;;;;;;;;;;;27.24;28.17;97730.34;5116573;28;19915;-78
2023/03/28 08:03:42;;;;;;;;;;;;;;;27.32;28.88;97747.88;5098390;28;19915;-78
2023/03/28 08:06:08;;;;;;;;;;;;;;;27.59;28.29;97751.41;5080679;28;20396;-79
2023/03/28 08:08:33;;;;;;;;;;;;;;;27.15;29.38;97745.22;5098345;28;19945;-79
2023/03/28 08:11:00;;;;;;;;;;;;;;;27.91;27.57;97739.13;5098518;28;19922;-80
2023/03/28 08:13:25;;;;;;;;;;;;;;;27.33;28.30;97753.00;5098062;28;19998;-78
2023/03/28 08:15:52;;;;;;;;;;;;;;;27.32;29.00;97745.19;5098723;28;19962;-83
2023/03/28 08:18:19;;;;;;;;;;;;;;;27.57;29.09;97774.16;5098013;28;19968;-79
2023/03/28 08:20:48;;;;;;;;;;;;;;;27.59;29.69;97755.97;5081112;28;19985;-78
2023/03/28 08:23:13;;;;;;;;;;;;;;;27.84;28.94;97754.63;5080744;28;19937;-79
2023/03/28 08:25:41;;;;;;;;;;;;;;;28.05;28.73;97753.75;5079873;28;20434;-82
2023/03/28 08:28:07;;;;;;;;;;;;;;;28.31;28.96;97741.38;5098324;28;19920;-74
2023/03/28 08:30:35;;;;;;;;;;;;;;;28.62;28.86;97748.88;5080031;28;20155;-74
2023/03/28 08:33:03;;;;;;;;;;;;;;;29.07;28.24;97752.09;5097417;28;20015;-76
2023/03/28 08:35:28;;;;;;;;;;;;;;;29.29;27.89;97742.00;5080630;28;19950;-73
2023/03/28 08:37:54;;;;;;;;;;;;;;;29.72;27.31;97748.03;5080222;28;19971;-74
2023/03/28 08:40:20;;;;;;;;;;;;;;;29.71;27.24;97751.00;5097114;28;20393;-72
2023/03/28 08:42:51;;;;;;;;;;;;;;;29.51;27.57;97743.66;5079973;28;19916;-77
2023/03/28 08:45:20;;;;;;;;;;;;;;;29.59;27.68;97759.31;5096991;28;19923;-72
2023/03/28 08:47:51;;;;;;;;;;;;;;;29.67;27.07;97766.06;5096866;28;19922;-77
2023/03/28 08:50:24;;;;;;;;;;;;;;;29.17;27.76;97789.75;5113608;28;19915;-77
2023/03/28 08:52:50;;;;;;;;;;;;;;;28.65;27.94;97785.94;5078488;28;20007;-77
2023/03/28 08:55:32;;;;;;;;;;;;;;;28.38;28.07;97783.28;5095569;28;20039;-76
2023/03/28 08:57:58;;;;;;;;;;;;;;;28.12;28.47;97783.88;5078375;28;20337;-77
2023/03/28 09:00:35;;;;;;;;;;;;;;;27.90;28.84;97791.94;5078199;28;19922;-76
2023/03/28 09:03:01;;;;;;;;;;;;;;;27.65;29.04;97794.38;5095213;28;19996;-76
2023/03/28 09:05:45;;;;;;;;;;;;;;;27.44;29.36;97791.44;5079387;28;19915;-75
2023/03/28 09:08:26;;;;;;;;;;;;;;;27.16;29.51;97787.03;5114906;28;19924;-76
2023/03/28 09:11:12;;;;;;;;;;;;;;;26.99;29.81;97793.22;5096489;28;19920;-76
2023/03/28 09:13:59;;;;;;;;;;;;;;;27.16;29.38;97785.16;5096877;28;19916;-75
2023/03/28 09:16:28;;;;;;;;;;;;;;;27.11;29.37;97785.09;5096733;28;19923;-75
2023/03/28 09:19:06;;;;;;;;;;;;;;;27.19;28.99;97797.25;5096218;28;19920;-75
2023/03/28 09:21:40;;;;;;;;;;;;;;;28.31;27.98;97796.94;5079088;28;19920;-77
2023/03/28 09:24:15;;;;;;;;;;;;;;;29.11;27.10;97794.28;5096208;28;19916;-76
2023/03/28 09:26:46;;;;;;;;;;;;;;;29.66;26.48;97777.88;5096276;28;20373;-78
2023/03/28 09:29:19;;;;;;;;;;;;;;;29.98;25.66;97775.00;5079255;28;20006;-75
2023/03/28 09:31:45;;;;;;;;;;;;;;;30.47;25.33;97797.94;5096092;28;20348;-76
2023/03/28 09:34:21;;;;;;;;;;;;;;;29.99;25.64;97797.34;5095964;28;19916;-77
2023/03/28 09:36:47;;;;;;;;;;;;;;;29.38;25.57;97801.41;5079829;28;19923;-77
2023/03/28 09:39:25;;;;;;;;;;;;;;;29.03;25.86;97792.91;5079498;28;19915;-76
2023/03/28 09:42:02;;;;;;;;;;;;;;;29.37;25.21;97792.56;5096112;28;19915;-74
2023/03/28 09:44:30;;;;;;;;;;;;;;;29.23;25.76;97802.16;5113981;28;20398;-76
2023/03/28 09:46:56;;;;;;;;;;;;;;;29.23;25.33;97812.91;5095963;28;19916;-74
2023/03/28 09:49:22;;;;;;;;;;;;;;;28.83;25.75;97806.22;5079137;28;19977;-73
2023/03/28 09:51:48;;;;;;;;;;;;;;;29.18;25.64;97807.50;5078851;28;19916;-74
2023/03/28 09:54:14;;;;;;;;;;;;;;;29.33;25.29;97807.59;5078833;28;19916;-74
2023/03/28 09:56:40;;;;;;;;;;;;;;;29.35;25.19;97797.41;5079032;28;19916;-75
2023/03/28 09:59:09;;;;;;;;;;;;;;;29.41;25.19;97788.28;5078409;28;19916;-75
2023/03/28 10:01:36;;;;;;;;;;;;;;;29.41;24.70;97801.72;5078576;28;19923;-75
2023/03/28 10:04:02;;;;;;;;;;;;;;;29.27;24.86;97811.34;5078457;28;19927;-75
2023/03/28 10:06:28;;;;;;;;;;;;;;;28.86;24.93;97819.09;5095280;28;19920;-74
2023/03/28 10:09:08;;;;;;;;;;;;;;;28.33;25.48;97829.69;5078780;28;19919;-73
2023/03/28 10:11:42;;;;;;;;;;;;;;;28.36;25.48;97836.41;5095935;28;20371;-76
2023/03/28 10:14:08;;;;;;;;;;;;;;;28.21;25.52;97858.53;5095569;28;19915;-74
2023/03/28 10:16:34;;;;;;;;;;;;;;;27.96;25.68;97838.44;5078086;28;19922;-72
2023/03/28 10:18:59;;;;;;;;;;;;;;;27.69;25.85;97844.53;5078948;28;19999;-74
2023/03/28 10:21:25;;;;;;;;;;;;;;;27.70;25.74;97851.50;5078331;28;20370;-73
2023/03/28 10:24:10;;;;;;;;;;;;;;;27.61;26.04;97847.66;5113403;28;19954;-74
2023/03/28 10:26:35;;;;;;;;;;;;;;;27.55;25.95;97844.09;5095731;28;19920;-75
2023/03/28 10:29:02;;;;;;;;;;;;;;;27.56;25.61;97847.59;5078386;28;20438;-74
2023/03/28 10:31:30;;;;;;;;;;;;;;;27.15;26.55;97863.91;5078225;28;19977;-74
2023/03/28 10:33:59;;;;;;;;;;;;;;;26.93;26.78;97863.84;5096048;28;20409;-75
2023/03/28 10:36:28;;;;;;;;;;;;;;;26.70;27.01;97857.59;5095173;28;19920;-75
2023/03/28 10:38:53;;;;;;;;;;;;;;;26.40;27.12;97865.88;5095315;28;19923;-74
2023/03/28 10:41:19;;;;;;;;;;;;;;;26.06;27.36;97862.31;5094891;28;19916;-75
2023/03/28 10:43:44;;;;;;;;;;;;;;;25.79;27.43;97874.38;5113105;28;19916;-74
2023/03/28 10:46:11;;;;;;;;;;;;;;;25.51;27.71;97875.13;5077907;28;19939;-76
2023/03/28 10:48:38;;;;;;;;;;;;;;;25.30;28.16;97870.38;5114777;28;20393;-75
2023/03/28 10:51:07;;;;;;;;;;;;;;;25.14;28.02;97863.84;5101562;28;19923;-75
2023/03/28 10:53:36;;;;;;;;;;;;;;;25.05;28.08;97860.72;5102072;28;19916;-75
2023/03/28 10:56:01;;;;;;;;;;;;;;;25.14;27.90;97858.50;5119905;28;19926;-74
2023/03/28 10:58:26;;;;;;;;;;;;;;;25.00;27.98;97865.94;5101489;28;19916;-74
2023/03/28 11:00:54;;;;;;;;;;;;;;;24.88;28.08;97871.28;5119609;28;20378;-74
2023/03/28 11:03:26;;;;;;;;;;;;;;;24.90;28.00;97880.66;5101106;28;19916;-75
2023/03/28 11:06:10;;;;;;;;;;;;;;;24.92;27.86;97872.41;5101489;28;20375;-74
2023/03/28 11:08:41;;;;;;;;;;;;;;;24.81;27.90;97886.56;5101577;28;20378;-74
2023/03/28 11:11:12;;;;;;;;;;;;;;;24.64;27.99;97887.25;5084040;28;19969;-75
2023/03/28 11:13:44;;;;;;;;;;;;;;;24.65;27.78;97896.06;5101462;28;19972;-74
2023/03/28 11:16:25;;;;;;;;;;;;;;;24.69;27.33;97882.03;5101104;28;19915;-73
2023/03/28 11:19:13;;;;;;;;;;;;;;;24.72;27.29;97888.78;5119878;28;20441;-75
2023/03/28 11:22:02;;;;;;;;;;;;;;;24.60;27.48;97882.59;5087759;28;19916;-74
2023/03/28 11:24:57;;;;;;;;;;;;;;;24.62;27.40;97894.69;5087625;28;20020;-79
2023/03/28 11:27:30;;;;;;;;;;;;;;;24.65;27.58;97888.84;5000362;28;20392;-75
2023/03/28 11:29:55;;;;;;;;;;;;;;;24.46;27.94;97892.59;4984188;28;20425;-74
2023/03/28 11:32:22;;;;;;;;;;;;;;;24.42;27.77;97896.78;5000250;28;19921;-73
2023/03/28 11:34:50;;;;;;;;;;;;;;;24.33;27.94;97901.63;4983883;28;19972;-76
2023/03/28 11:37:18;;;;;;;;;;;;;;;24.20;27.94;97891.94;5000254;28;20393;-75
2023/03/28 11:39:48;;;;;;;;;;;;;;;24.03;28.04;97905.06;4983897;28;19968;-75
2023/03/28 11:42:17;;;;;;;;;;;;;;;23.87;28.11;97898.50;4983917;28;19924;-75
2023/03/28 11:44:55;;;;;;;;;;;;;;;23.79;28.13;97898.78;5000794;28;19918;-73
2023/03/28 11:47:21;;;;;;;;;;;;;;;23.65;28.06;97916.75;4983852;28;19924;-73
2023/03/28 11:49:47;;;;;;;;;;;;;;;23.53;28.09;97908.69;4984413;28;20000;-74
2023/03/28 11:52:19;;;;;;;;;;;;;;;23.32;28.48;97903.78;5000356;28;19918;-75
2023/03/28 11:54:48;;;;;;;;;;;;;;;23.11;28.59;97892.50;5000435;28;19964;-73
2023/03/28 11:57:29;;;;;;;;;;;;;;;23.05;28.87;97925.28;4983812;28;19939;-76
2023/03/28 11:59:56;;;;;;;;;;;;;;;22.91;28.82;97920.06;5015233;28;19960;-76
2023/03/28 12:02:27;;;;;;;;;;;;;;;22.81;28.88;97917.06;4996649;28;19921;-75
2023/03/28 12:04:54;;;;;;;;;;;;;;;22.75;28.85;97910.75;5112859;28;19916;-76
2023/03/28 12:07:32;;;;;;;;;;;;;;;22.68;29.08;97917.97;5080398;28;20011;-75
2023/03/28 12:09:57;;;;;;;;;;;;;;;22.58;29.07;97918.47;5081124;28;19916;-75
2023/03/28 12:12:32;;;;;;;;;;;;;;;22.49;29.29;97919.75;5097435;28;19973;-76
2023/03/28 12:15:01;;;;;;;;;;;;;;;22.47;29.33;97932.44;5080569;28;20367;-76
2023/03/28 12:17:27;;;;;;;;;;;;;;;22.34;29.36;97930.66;5097230;28;20326;-76
2023/03/28 12:19:52;;;;;;;;;;;;;;;22.26;29.39;97932.72;5097446;28;19923;-76
2023/03/28 12:22:39;;;;;;;;;;;;;;;22.14;29.64;97949.34;5097367;28;19916;-77
2023/03/28 12:25:23;;;;;;;;;;;;;;;22.04;29.46;97946.28;5098234;28;19916;-76
2023/03/28 12:27:52;;;;;;;;;;;;;;;22.04;29.17;97943.63;5115520;28;19919;-77
2023/03/28 12:30:21;;;;;;;;;;;;;;;21.96;28.96;97955.31;5097543;28;20377;-76
2023/03/28 12:32:55;;;;;;;;;;;;;;;21.95;28.71;97950.19;5080382;28;19920;-76
2023/03/28 12:35:39;;;;;;;;;;;;;;;21.88;28.67;97952.09;5079211;28;20375;-75
2023/03/28 12:38:17;;;;;;;;;;;;;;;21.81;28.59;97952.91;5097374;28;19923;-75
2023/03/28 12:40:42;;;;;;;;;;;;;;;21.75;28.55;97952.94;5097118;28;19920;-73
2023/03/28 12:43:07;;;;;;;;;;;;;;;21.72;28.25;97961.31;5115112;28;20272;-73
2023/03/28 12:45:37;;;;;;;;;;;;;;;21.65;27.89;97964.00;5079556;28;19915;-73
2023/03/28 12:48:05;;;;;;;;;;;;;;;21.58;28.16;97982.56;5080023;28;19974;-72
2023/03/28 12:51:06;;;;;;;;;;;;;;;21.55;27.96;97985.63;5097142;28;19915;-75
2023/03/28 12:53:31;;;;;;;;;;;;;;;21.49;27.79;97984.63;4996284;28;19922;-74